sensor_id;sensor_type;location;lat;lon;timestamp;temperature;humidity
10903;DHT22;5504;47.312;11.060;2023-04-15T00:01:19;7.00;90.80
10903;DHT22;5504;47.312;11.060;2023-04-15T00:03:45;7.10;90.60
10903;DHT22;5504;47.312;11.060;2023-04-15T00:06:12;6.90;90.40
10903;DHT22;5504;47.312;11.060;2023-04-15T00:08:38;6.90;90.60
10903;DHT22;5504;47.312;11.060;2023-04-15T00:11:04;6.80;90.30
10903;DHT22;5504;47.312;11.060;2023-04-15T00:13:30;6.90;90.60
10903;DHT22;5504;47.312;11.060;2023-04-15T00:15:58;6.90;90.70
10903;DHT22;5504;47.312;11.060;2023-04-15T00:18:24;6.80;90.50
10903;DHT22;5504;47.312;11.060;2023-04-15T00:20:50;6.80;90.80
10903;DHT22;5504;47.312;11.060;2023-04-15T00:23:15;6.90;90.90
10903;DHT22;5504;47.312;11.060;2023-04-15T00:25:41;6.90;90.80
10903;DHT22;5504;47.312;11.060;2023-04-15T00:28:07;7.10;90.60
10903;DHT22;5504;47.312;11.060;2023-04-15T00:30:33;6.90;90.30
10903;DHT22;5504;47.312;11.060;2023-04-15T00:32:59;6.90;90.50
10903;DHT22;5504;47.312;11.060;2023-04-15T00:35:26;6.90;90.60
10903;DHT22;5504;47.312;11.060;2023-04-15T00:37:52;6.90;90.50
10903;DHT22;5504;47.312;11.060;2023-04-15T00:40:20;6.80;90.50
10903;DHT22;5504;47.312;11.060;2023-04-15T00:42:46;6.80;90.40
10903;DHT22;5504;47.312;11.060;2023-04-15T00:45:12;6.90;90.70
10903;DHT22;5504;47.312;11.060;2023-04-15T00:47:40;6.90;90.60
10903;DHT22;5504;47.312;11.060;2023-04-15T00:50:07;6.90;90.30
10903;DHT22;5504;47.312;11.060;2023-04-15T00:52:33;6.90;90.30
10903;DHT22;5504;47.312;11.060;2023-04-15T00:54:59;6.90;90.40
10903;DHT22;5504;47.312;11.060;2023-04-15T00:57:25;6.90;90.20
10903;DHT22;5504;47.312;11.060;2023-04-15T00:59:54;6.80;90.10
10903;DHT22;5504;47.312;11.060;2023-04-15T01:02:21;6.80;90.00
10903;DHT22;5504;47.312;11.060;2023-04-15T01:04:47;6.80;90.00
10903;DHT22;5504;47.312;11.060;2023-04-15T01:07:13;6.70;89.60
10903;DHT22;5504;47.312;11.060;2023-04-15T01:09:39;6.90;89.00
10903;DHT22;5504;47.312;11.060;2023-04-15T01:12:06;6.80;89.10
10903;DHT22;5504;47.312;11.060;2023-04-15T01:14:33;6.70;89.30
10903;DHT22;5504;47.312;11.060;2023-04-15T01:16:58;6.90;89.70
10903;DHT22;5504;47.312;11.060;2023-04-15T01:19:25;6.90;88.70
10903;DHT22;5504;47.312;11.060;2023-04-15T01:21:51;6.80;89.30
10903;DHT22;5504;47.312;11.060;2023-04-15T01:24:18;6.80;90.00
10903;DHT22;5504;47.312;11.060;2023-04-15T01:26:44;6.70;89.70
10903;DHT22;5504;47.312;11.060;2023-04-15T01:29:11;6.70;89.20
10903;DHT22;5504;47.312;11.060;2023-04-15T01:31:37;6.70;89.10
10903;DHT22;5504;47.312;11.060;2023-04-15T01:34:03;6.70;89.00
10903;DHT22;5504;47.312;11.060;2023-04-15T01:36:29;6.60;88.20
10903;DHT22;5504;47.312;11.060;2023-04-15T01:38:56;6.70;88.30
10903;DHT22;5504;47.312;11.060;2023-04-15T01:41:26;6.60;88.50
10903;DHT22;5504;47.312;11.060;2023-04-15T01:43:53;6.70;88.90
10903;DHT22;5504;47.312;11.060;2023-04-15T01:46:19;6.60;89.00
10903;DHT22;5504;47.312;11.060;2023-04-15T01:48:45;6.60;88.80
10903;DHT22;5504;47.312;11.060;2023-04-15T01:51:11;6.70;88.10
10903;DHT22;5504;47.312;11.060;2023-04-15T01:53:37;6.70;88.20
10903;DHT22;5504;47.312;11.060;2023-04-15T01:56:03;6.70;87.70
10903;DHT22;5504;47.312;11.060;2023-04-15T01:58:29;6.60;87.80
10903;DHT22;5504;47.312;11.060;2023-04-15T02:00:55;6.70;88.00
10903;DHT22;5504;47.312;11.060;2023-04-15T02:03:21;6.60;88.40
10903;DHT22;5504;47.312;11.060;2023-04-15T02:05:47;6.60;88.90
10903;DHT22;5504;47.312;11.060;2023-04-15T02:08:13;6.60;89.10
10903;DHT22;5504;47.312;11.060;2023-04-15T02:10:39;6.60;89.30
10903;DHT22;5504;47.312;11.060;2023-04-15T02:13:05;6.50;89.10
10903;DHT22;5504;47.312;11.060;2023-04-15T02:15:30;6.60;89.10
10903;DHT22;5504;47.312;11.060;2023-04-15T02:17:57;6.60;88.50
10903;DHT22;5504;47.312;11.060;2023-04-15T02:20:25;6.60;88.20
10903;DHT22;5504;47.312;11.060;2023-04-15T02:22:51;6.50;88.50
10903;DHT22;5504;47.312;11.060;2023-04-15T02:25:16;6.60;88.00
10903;DHT22;5504;47.312;11.060;2023-04-15T02:27:43;6.60;87.50
10903;DHT22;5504;47.312;11.060;2023-04-15T02:30:09;6.60;87.60
10903;DHT22;5504;47.312;11.060;2023-04-15T02:32:34;6.50;87.80
10903;DHT22;5504;47.312;11.060;2023-04-15T02:35:03;6.40;88.40
10903;DHT22;5504;47.312;11.060;2023-04-15T02:37:30;6.30;88.50
10903;DHT22;5504;47.312;11.060;2023-04-15T02:39:56;6.30;88.60
10903;DHT22;5504;47.312;11.060;2023-04-15T02:42:22;6.30;88.90
10903;DHT22;5504;47.312;11.060;2023-04-15T02:44:47;6.30;88.60
10903;DHT22;5504;47.312;11.060;2023-04-15T02:47:13;6.20;87.50
10903;DHT22;5504;47.312;11.060;2023-04-15T02:49:40;6.00;87.70
10903;DHT22;5504;47.312;11.060;2023-04-15T02:52:06;5.90;88.40
10903;DHT22;5504;47.312;11.060;2023-04-15T02:54:32;5.90;88.90
10903;DHT22;5504;47.312;11.060;2023-04-15T02:56:58;5.80;89.10
10903;DHT22;5504;47.312;11.060;2023-04-15T02:59:24;5.90;89.40
10903;DHT22;5504;47.312;11.060;2023-04-15T03:01:50;6.00;89.40
10903;DHT22;5504;47.312;11.060;2023-04-15T03:04:15;6.10;89.10
10903;DHT22;5504;47.312;11.060;2023-04-15T03:06:41;6.10;89.10
10903;DHT22;5504;47.312;11.060;2023-04-15T03:09:07;6.00;89.20
10903;DHT22;5504;47.312;11.060;2023-04-15T03:11:33;6.00;89.10
10903;DHT22;5504;47.312;11.060;2023-04-15T03:14:01;5.90;89.00
10903;DHT22;5504;47.312;11.060;2023-04-15T03:16:27;5.90;88.80
10903;DHT22;5504;47.312;11.060;2023-04-15T03:18:52;5.90;88.90
10903;DHT22;5504;47.312;11.060;2023-04-15T03:21:18;5.90;89.20
10903;DHT22;5504;47.312;11.060;2023-04-15T03:23:44;5.90;88.60
10903;DHT22;5504;47.312;11.060;2023-04-15T03:26:31;5.90;88.00
10903;DHT22;5504;47.312;11.060;2023-04-15T03:28:57;5.90;88.50
10903;DHT22;5504;47.312;11.060;2023-04-15T03:31:23;5.80;88.40
10903;DHT22;5504;47.312;11.060;2023-04-15T03:33:49;5.70;88.00
10903;DHT22;5504;47.312;11.060;2023-04-15T03:36:15;5.70;88.40
10903;DHT22;5504;47.312;11.060;2023-04-15T03:38:41;5.60;88.00
10903;DHT22;5504;47.312;11.060;2023-04-15T03:41:07;5.50;88.20
10903;DHT22;5504;47.312;11.060;2023-04-15T03:43:34;5.40;88.00
10903;DHT22;5504;47.312;11.060;2023-04-15T03:46:00;5.50;88.00
10903;DHT22;5504;47.312;11.060;2023-04-15T03:48:26;5.50;88.20
10903;DHT22;5504;47.312;11.060;2023-04-15T03:50:52;5.50;87.90
10903;DHT22;5504;47.312;11.060;2023-04-15T03:53:17;5.50;87.40
10903;DHT22;5504;47.312;11.060;2023-04-15T03:55:43;5.40;86.40
10903;DHT22;5504;47.312;11.060;2023-04-15T03:58:09;5.30;86.60
10903;DHT22;5504;47.312;11.060;2023-04-15T04:00:37;5.30;86.60
10903;DHT22;5504;47.312;11.060;2023-04-15T04:03:03;5.20;87.20
10903;DHT22;5504;47.312;11.060;2023-04-15T04:05:29;5.10;87.30
10903;DHT22;5504;47.312;11.060;2023-04-15T04:07:55;5.00;86.70
10903;DHT22;5504;47.312;11.060;2023-04-15T04:10:21;5.00;87.70
10903;DHT22;5504;47.312;11.060;2023-04-15T04:12:46;4.90;87.90
10903;DHT22;5504;47.312;11.060;2023-04-15T04:15:12;4.90;87.80
10903;DHT22;5504;47.312;11.060;2023-04-15T04:17:37;4.60;88.30
10903;DHT22;5504;47.312;11.060;2023-04-15T04:20:03;4.80;89.00
10903;DHT22;5504;47.312;11.060;2023-04-15T04:22:30;4.80;87.80
10903;DHT22;5504;47.312;11.060;2023-04-15T04:24:56;4.90;87.80
10903;DHT22;5504;47.312;11.060;2023-04-15T04:27:24;4.80;87.70
10903;DHT22;5504;47.312;11.060;2023-04-15T04:29:49;4.80;87.50
10903;DHT22;5504;47.312;11.060;2023-04-15T04:32:15;4.80;87.50
10903;DHT22;5504;47.312;11.060;2023-04-15T04:34:41;4.90;87.10
10903;DHT22;5504;47.312;11.060;2023-04-15T04:37:07;5.00;87.00
10903;DHT22;5504;47.312;11.060;2023-04-15T04:39:32;4.90;87.20
10903;DHT22;5504;47.312;11.060;2023-04-15T04:41:58;4.80;87.60
10903;DHT22;5504;47.312;11.060;2023-04-15T04:44:24;4.80;88.00
10903;DHT22;5504;47.312;11.060;2023-04-15T04:46:49;4.80;87.40
10903;DHT22;5504;47.312;11.060;2023-04-15T04:49:15;4.90;87.70
10903;DHT22;5504;47.312;11.060;2023-04-15T04:51:41;4.80;86.70
10903;DHT22;5504;47.312;11.060;2023-04-15T04:54:06;4.70;87.40
10903;DHT22;5504;47.312;11.060;2023-04-15T04:56:33;4.80;86.90
10903;DHT22;5504;47.312;11.060;2023-04-15T04:58:59;4.80;86.80
10903;DHT22;5504;47.312;11.060;2023-04-15T05:01:25;4.80;87.30
10903;DHT22;5504;47.312;11.060;2023-04-15T05:03:52;4.90;87.10
10903;DHT22;5504;47.312;11.060;2023-04-15T05:06:18;5.00;86.80
10903;DHT22;5504;47.312;11.060;2023-04-15T05:08:43;5.00;86.90
10903;DHT22;5504;47.312;11.060;2023-04-15T05:11:11;5.10;87.60
10903;DHT22;5504;47.312;11.060;2023-04-15T05:13:37;5.00;87.00
10903;DHT22;5504;47.312;11.060;2023-04-15T05:16:06;5.00;87.30
10903;DHT22;5504;47.312;11.060;2023-04-15T05:18:31;5.00;87.30
10903;DHT22;5504;47.312;11.060;2023-04-15T05:20:58;5.10;87.30
10903;DHT22;5504;47.312;11.060;2023-04-15T05:23:23;5.10;88.30
10903;DHT22;5504;47.312;11.060;2023-04-15T05:25:49;5.30;88.20
10903;DHT22;5504;47.312;11.060;2023-04-15T05:28:15;5.30;87.30
10903;DHT22;5504;47.312;11.060;2023-04-15T05:30:41;5.40;87.20
10903;DHT22;5504;47.312;11.060;2023-04-15T05:33:07;5.40;86.80
10903;DHT22;5504;47.312;11.060;2023-04-15T05:35:33;5.40;86.40
10903;DHT22;5504;47.312;11.060;2023-04-15T05:37:59;5.70;86.70
10903;DHT22;5504;47.312;11.060;2023-04-15T05:40:25;5.70;86.50
10903;DHT22;5504;47.312;11.060;2023-04-15T05:42:51;5.80;86.30
10903;DHT22;5504;47.312;11.060;2023-04-15T05:45:16;5.80;86.00
10903;DHT22;5504;47.312;11.060;2023-04-15T05:47:42;6.00;86.50
10903;DHT22;5504;47.312;11.060;2023-04-15T05:50:08;6.10;86.80
10903;DHT22;5504;47.312;11.060;2023-04-15T05:52:34;6.20;86.80
10903;DHT22;5504;47.312;11.060;2023-04-15T05:54:59;6.30;87.00
10903;DHT22;5504;47.312;11.060;2023-04-15T05:57:25;6.40;86.10
10903;DHT22;5504;47.312;11.060;2023-04-15T05:59:51;6.40;85.90
10903;DHT22;5504;47.312;11.060;2023-04-15T06:02:17;6.50;85.30
10903;DHT22;5504;47.312;11.060;2023-04-15T06:04:43;6.50;84.30
10903;DHT22;5504;47.312;11.060;2023-04-15T06:07:08;6.50;82.20
10903;DHT22;5504;47.312;11.060;2023-04-15T06:09:35;6.40;80.80
10903;DHT22;5504;47.312;11.060;2023-04-15T06:12:00;6.50;81.10
10903;DHT22;5504;47.312;11.060;2023-04-15T06:14:26;6.10;74.50
10903;DHT22;5504;47.312;11.060;2023-04-15T06:16:52;6.30;75.60
10903;DHT22;5504;47.312;11.060;2023-04-15T06:19:18;6.50;76.30
10903;DHT22;5504;47.312;11.060;2023-04-15T06:21:44;6.50;73.20
10903;DHT22;5504;47.312;11.060;2023-04-15T06:24:11;6.50;71.30
10903;DHT22;5504;47.312;11.060;2023-04-15T06:26:36;6.70;72.30
10903;DHT22;5504;47.312;11.060;2023-04-15T06:29:02;7.00;73.10
10903;DHT22;5504;47.312;11.060;2023-04-15T06:31:28;7.30;71.00
10903;DHT22;5504;47.312;11.060;2023-04-15T06:33:54;7.30;71.00
10903;DHT22;5504;47.312;11.060;2023-04-15T06:36:20;7.50;70.60
10903;DHT22;5504;47.312;11.060;2023-04-15T06:38:46;7.40;71.50
10903;DHT22;5504;47.312;11.060;2023-04-15T06:41:11;7.60;72.10
10903;DHT22;5504;47.312;11.060;2023-04-15T06:43:38;7.70;70.90
10903;DHT22;5504;47.312;11.060;2023-04-15T06:46:04;7.90;69.80
10903;DHT22;5504;47.312;11.060;2023-04-15T06:48:30;8.00;68.10
10903;DHT22;5504;47.312;11.060;2023-04-15T06:50:55;8.00;67.50
10903;DHT22;5504;47.312;11.060;2023-04-15T06:53:24;8.00;65.50
10903;DHT22;5504;47.312;11.060;2023-04-15T06:55:51;8.30;67.20
10903;DHT22;5504;47.312;11.060;2023-04-15T06:58:17;8.80;66.90
10903;DHT22;5504;47.312;11.060;2023-04-15T07:00:42;8.70;65.00
10903;DHT22;5504;47.312;11.060;2023-04-15T07:03:10;9.20;65.20
10903;DHT22;5504;47.312;11.060;2023-04-15T07:05:37;9.20;63.70
10903;DHT22;5504;47.312;11.060;2023-04-15T07:08:03;9.10;63.40
10903;DHT22;5504;47.312;11.060;2023-04-15T07:10:29;9.30;63.40
10903;DHT22;5504;47.312;11.060;2023-04-15T07:12:55;8.80;62.30
10903;DHT22;5504;47.312;11.060;2023-04-15T07:15:21;8.70;63.90
10903;DHT22;5504;47.312;11.060;2023-04-15T07:17:48;8.50;62.80
10903;DHT22;5504;47.312;11.060;2023-04-15T07:20:13;8.80;65.10
10903;DHT22;5504;47.312;11.060;2023-04-15T07:22:39;9.00;64.70
10903;DHT22;5504;47.312;11.060;2023-04-15T07:25:05;9.10;62.00
10903;DHT22;5504;47.312;11.060;2023-04-15T07:27:32;9.30;63.60
10903;DHT22;5504;47.312;11.060;2023-04-15T07:29:58;8.80;61.10
10903;DHT22;5504;47.312;11.060;2023-04-15T07:32:23;8.90;63.00
10903;DHT22;5504;47.312;11.060;2023-04-15T07:34:49;9.00;61.90
10903;DHT22;5504;47.312;11.060;2023-04-15T07:37:15;8.80;60.60
10903;DHT22;5504;47.312;11.060;2023-04-15T07:39:40;8.80;63.40
10903;DHT22;5504;47.312;11.060;2023-04-15T07:42:07;8.80;61.80
10903;DHT22;5504;47.312;11.060;2023-04-15T07:44:33;8.60;61.20
10903;DHT22;5504;47.312;11.060;2023-04-15T07:46:58;8.60;62.60
10903;DHT22;5504;47.312;11.060;2023-04-15T07:49:24;8.80;64.20
10903;DHT22;5504;47.312;11.060;2023-04-15T07:51:50;8.80;62.40
10903;DHT22;5504;47.312;11.060;2023-04-15T07:54:16;8.90;61.40
10903;DHT22;5504;47.312;11.060;2023-04-15T07:56:42;9.00;63.40
10903;DHT22;5504;47.312;11.060;2023-04-15T07:59:08;9.00;62.20
10903;DHT22;5504;47.312;11.060;2023-04-15T08:01:34;9.30;61.80
10903;DHT22;5504;47.312;11.060;2023-04-15T08:04:00;9.00;61.20
10903;DHT22;5504;47.312;11.060;2023-04-15T08:06:26;9.00;60.20
10903;DHT22;5504;47.312;11.060;2023-04-15T08:08:52;9.00;61.70
10903;DHT22;5504;47.312;11.060;2023-04-15T08:11:19;9.10;62.50
10903;DHT22;5504;47.312;11.060;2023-04-15T08:13:45;9.20;62.10
10903;DHT22;5504;47.312;11.060;2023-04-15T08:16:22;9.30;61.60
10903;DHT22;5504;47.312;11.060;2023-04-15T08:18:50;9.60;61.70
10903;DHT22;5504;47.312;11.060;2023-04-15T08:21:16;9.90;63.40
10903;DHT22;5504;47.312;11.060;2023-04-15T08:23:43;10.00;61.90
10903;DHT22;5504;47.312;11.060;2023-04-15T08:26:09;10.00;61.30
10903;DHT22;5504;47.312;11.060;2023-04-15T08:28:37;10.20;60.40
10903;DHT22;5504;47.312;11.060;2023-04-15T08:31:03;10.10;59.60
10903;DHT22;5504;47.312;11.060;2023-04-15T08:33:29;10.50;60.80
10903;DHT22;5504;47.312;11.060;2023-04-15T08:35:55;10.50;59.20
10903;DHT22;5504;47.312;11.060;2023-04-15T08:38:22;10.60;60.20
10903;DHT22;5504;47.312;11.060;2023-04-15T08:40:48;11.00;58.50
10903;DHT22;5504;47.312;11.060;2023-04-15T08:43:22;10.80;57.70
10903;DHT22;5504;47.312;11.060;2023-04-15T08:45:53;11.70;58.70
10903;DHT22;5504;47.312;11.060;2023-04-15T08:48:19;12.50;57.50
10903;DHT22;5504;47.312;11.060;2023-04-15T08:50:46;12.90;54.10
10903;DHT22;5504;47.312;11.060;2023-04-15T08:53:13;13.80;55.20
10903;DHT22;5504;47.312;11.060;2023-04-15T08:55:42;14.20;51.10
10903;DHT22;5504;47.312;11.060;2023-04-15T08:58:12;14.30;51.70
10903;DHT22;5504;47.312;11.060;2023-04-15T09:00:39;14.20;50.40
10903;DHT22;5504;47.312;11.060;2023-04-15T09:03:05;14.30;50.50
10903;DHT22;5504;47.312;11.060;2023-04-15T09:05:33;14.80;49.60
10903;DHT22;5504;47.312;11.060;2023-04-15T09:07:59;15.30;50.00
10903;DHT22;5504;47.312;11.060;2023-04-15T09:10:26;15.50;46.70
10903;DHT22;5504;47.312;11.060;2023-04-15T09:12:52;15.70;50.50
10903;DHT22;5504;47.312;11.060;2023-04-15T09:15:17;15.60;45.80
10903;DHT22;5504;47.312;11.060;2023-04-15T09:17:44;15.90;48.40
10903;DHT22;5504;47.312;11.060;2023-04-15T09:20:11;15.70;46.30
10903;DHT22;5504;47.312;11.060;2023-04-15T09:22:42;16.20;48.10
10903;DHT22;5504;47.312;11.060;2023-04-15T09:27:48;16.30;45.50
10903;DHT22;5504;47.312;11.060;2023-04-15T09:30:14;16.30;45.50
10903;DHT22;5504;47.312;11.060;2023-04-15T09:32:58;16.20;48.00
10903;DHT22;5504;47.312;11.060;2023-04-15T09:35:25;16.30;49.50
10903;DHT22;5504;47.312;11.060;2023-04-15T09:38:07;16.50;46.00
10903;DHT22;5504;47.312;11.060;2023-04-15T09:40:38;16.10;45.80
10903;DHT22;5504;47.312;11.060;2023-04-15T09:43:05;15.70;45.60
10903;DHT22;5504;47.312;11.060;2023-04-15T09:45:32;15.60;43.60
10903;DHT22;5504;47.312;11.060;2023-04-15T09:48:13;15.60;45.70
10903;DHT22;5504;47.312;11.060;2023-04-15T09:50:43;15.60;44.50
10903;DHT22;5504;47.312;11.060;2023-04-15T09:53:09;15.70;47.40
10903;DHT22;5504;47.312;11.060;2023-04-15T09:55:36;15.60;46.90
10903;DHT22;5504;47.312;11.060;2023-04-15T09:58:08;16.70;46.80
10903;DHT22;5504;47.312;11.060;2023-04-15T10:00:35;17.00;45.20
10903;DHT22;5504;47.312;11.060;2023-04-15T10:03:04;17.10;42.10
10903;DHT22;5504;47.312;11.060;2023-04-15T10:05:30;17.60;44.10
10903;DHT22;5504;47.312;11.060;2023-04-15T10:07:56;17.10;43.20
10903;DHT22;5504;47.312;11.060;2023-04-15T10:10:23;16.70;42.90
10903;DHT22;5504;47.312;11.060;2023-04-15T10:12:50;16.10;41.80
10903;DHT22;5504;47.312;11.060;2023-04-15T10:15:17;15.50;44.20
10903;DHT22;5504;47.312;11.060;2023-04-15T10:17:44;15.30;44.10
10903;DHT22;5504;47.312;11.060;2023-04-15T10:20:10;14.80;43.60
10903;DHT22;5504;47.312;11.060;2023-04-15T10:22:37;14.30;45.40
10903;DHT22;5504;47.312;11.060;2023-04-15T10:25:04;14.60;48.50
10903;DHT22;5504;47.312;11.060;2023-04-15T10:27:30;15.10;47.20
10903;DHT22;5504;47.312;11.060;2023-04-15T10:29:59;15.50;44.80
10903;DHT22;5504;47.312;11.060;2023-04-15T10:32:26;14.80;44.40
10903;DHT22;5504;47.312;11.060;2023-04-15T10:34:53;14.80;45.90
10903;DHT22;5504;47.312;11.060;2023-04-15T10:37:21;15.10;45.70
10903;DHT22;5504;47.312;11.060;2023-04-15T10:39:47;14.90;44.90
10903;DHT22;5504;47.312;11.060;2023-04-15T10:42:17;14.90;43.30
10903;DHT22;5504;47.312;11.060;2023-04-15T10:44:44;15.20;44.80
10903;DHT22;5504;47.312;11.060;2023-04-15T10:47:15;15.10;44.20
10903;DHT22;5504;47.312;11.060;2023-04-15T10:49:47;14.40;42.80
10903;DHT22;5504;47.312;11.060;2023-04-15T10:52:14;14.20;44.20
10903;DHT22;5504;47.312;11.060;2023-04-15T10:54:41;14.30;46.40
10903;DHT22;5504;47.312;11.060;2023-04-15T10:57:13;14.50;46.20
10903;DHT22;5504;47.312;11.060;2023-04-15T10:59:59;14.80;44.90
10903;DHT22;5504;47.312;11.060;2023-04-15T11:02:52;15.00;45.40
10903;DHT22;5504;47.312;11.060;2023-04-15T11:05:53;14.40;46.90
10903;DHT22;5504;47.312;11.060;2023-04-15T11:08:56;13.80;46.00
10903;DHT22;5504;47.312;11.060;2023-04-15T11:11:43;13.60;45.70
10903;DHT22;5504;47.312;11.060;2023-04-15T11:14:14;13.80;44.90
10903;DHT22;5504;47.312;11.060;2023-04-15T11:16:43;13.90;45.10
10903;DHT22;5504;47.312;11.060;2023-04-15T11:19:09;14.10;43.90
10903;DHT22;5504;47.312;11.060;2023-04-15T11:21:35;14.30;46.80
10903;DHT22;5504;47.312;11.060;2023-04-15T11:24:01;14.20;45.80
10903;DHT22;5504;47.312;11.060;2023-04-15T11:26:28;14.50;45.60
10903;DHT22;5504;47.312;11.060;2023-04-15T11:28:54;14.50;44.50
10903;DHT22;5504;47.312;11.060;2023-04-15T11:31:20;14.60;46.00
10903;DHT22;5504;47.312;11.060;2023-04-15T11:33:56;14.80;45.90
10903;DHT22;5504;47.312;11.060;2023-04-15T11:36:26;14.70;44.60
10903;DHT22;5504;47.312;11.060;2023-04-15T11:38:52;14.70;45.00
10903;DHT22;5504;47.312;11.060;2023-04-15T11:41:22;14.70;44.80
10903;DHT22;5504;47.312;11.060;2023-04-15T11:43:49;14.70;45.70
10903;DHT22;5504;47.312;11.060;2023-04-15T11:46:15;14.30;44.50
10903;DHT22;5504;47.312;11.060;2023-04-15T11:48:42;14.30;44.80
10903;DHT22;5504;47.312;11.060;2023-04-15T11:51:09;14.10;45.40
10903;DHT22;5504;47.312;11.060;2023-04-15T11:56:05;14.30;46.00
10903;DHT22;5504;47.312;11.060;2023-04-15T11:58:34;14.30;46.50
10903;DHT22;5504;47.312;11.060;2023-04-15T12:01:02;14.40;47.40
10903;DHT22;5504;47.312;11.060;2023-04-15T12:03:41;14.40;45.90
10903;DHT22;5504;47.312;11.060;2023-04-15T12:06:18;14.60;46.20
10903;DHT22;5504;47.312;11.060;2023-04-15T12:09:15;14.80;47.10
10903;DHT22;5504;47.312;11.060;2023-04-15T12:11:49;14.70;46.60
10903;DHT22;5504;47.312;11.060;2023-04-15T12:16:46;14.30;45.20
10903;DHT22;5504;47.312;11.060;2023-04-15T12:19:16;14.70;45.70
10903;DHT22;5504;47.312;11.060;2023-04-15T12:21:44;15.10;45.80
10903;DHT22;5504;47.312;11.060;2023-04-15T12:24:11;15.30;43.80
10903;DHT22;5504;47.312;11.060;2023-04-15T12:26:42;14.60;41.60
10903;DHT22;5504;47.312;11.060;2023-04-15T12:29:09;14.80;44.60
10903;DHT22;5504;47.312;11.060;2023-04-15T12:31:36;14.20;41.80
10903;DHT22;5504;47.312;11.060;2023-04-15T12:34:03;14.60;43.70
10903;DHT22;5504;47.312;11.060;2023-04-15T12:36:31;15.10;44.90
10903;DHT22;5504;47.312;11.060;2023-04-15T12:39:04;14.20;42.90
10903;DHT22;5504;47.312;11.060;2023-04-15T12:41:31;14.50;45.90
10903;DHT22;5504;47.312;11.060;2023-04-15T12:43:57;14.60;44.60
10903;DHT22;5504;47.312;11.060;2023-04-15T12:46:24;15.00;46.00
10903;DHT22;5504;47.312;11.060;2023-04-15T12:48:50;15.10;44.40
10903;DHT22;5504;47.312;11.060;2023-04-15T12:51:18;14.90;43.90
10903;DHT22;5504;47.312;11.060;2023-04-15T12:53:45;14.60;41.80
10903;DHT22;5504;47.312;11.060;2023-04-15T12:56:12;14.20;43.70
10903;DHT22;5504;47.312;11.060;2023-04-15T12:58:37;14.30;42.80
10903;DHT22;5504;47.312;11.060;2023-04-15T13:01:03;14.20;44.80
10903;DHT22;5504;47.312;11.060;2023-04-15T13:03:29;13.90;46.50
10903;DHT22;5504;47.312;11.060;2023-04-15T13:05:55;13.90;46.70
10903;DHT22;5504;47.312;11.060;2023-04-15T13:08:22;13.90;47.30
10903;DHT22;5504;47.312;11.060;2023-04-15T13:10:47;13.60;47.50
10903;DHT22;5504;47.312;11.060;2023-04-15T13:13:13;13.80;48.00
10903;DHT22;5504;47.312;11.060;2023-04-15T13:15:39;13.70;47.90
10903;DHT22;5504;47.312;11.060;2023-04-15T13:18:06;13.50;47.60
10903;DHT22;5504;47.312;11.060;2023-04-15T13:20:32;13.40;47.30
10903;DHT22;5504;47.312;11.060;2023-04-15T13:22:58;13.50;48.90
10903;DHT22;5504;47.312;11.060;2023-04-15T13:25:24;13.80;47.70
10903;DHT22;5504;47.312;11.060;2023-04-15T13:27:50;14.00;46.60
10903;DHT22;5504;47.312;11.060;2023-04-15T13:30:16;13.60;46.60
10903;DHT22;5504;47.312;11.060;2023-04-15T13:32:42;13.70;46.50
10903;DHT22;5504;47.312;11.060;2023-04-15T13:35:08;13.90;47.80
10903;DHT22;5504;47.312;11.060;2023-04-15T13:37:34;13.80;47.50
10903;DHT22;5504;47.312;11.060;2023-04-15T13:40:00;13.80;47.80
10903;DHT22;5504;47.312;11.060;2023-04-15T13:42:26;14.10;48.90
10903;DHT22;5504;47.312;11.060;2023-04-15T13:44:52;14.10;47.20
10903;DHT22;5504;47.312;11.060;2023-04-15T13:47:21;14.00;47.00
10903;DHT22;5504;47.312;11.060;2023-04-15T13:49:46;14.30;47.70
10903;DHT22;5504;47.312;11.060;2023-04-15T13:52:12;14.60;46.60
10903;DHT22;5504;47.312;11.060;2023-04-15T13:54:38;14.60;46.00
10903;DHT22;5504;47.312;11.060;2023-04-15T13:57:06;14.60;47.20
10903;DHT22;5504;47.312;11.060;2023-04-15T13:59:34;14.20;44.60
10903;DHT22;5504;47.312;11.060;2023-04-15T14:02:00;14.30;47.30
10903;DHT22;5504;47.312;11.060;2023-04-15T14:04:26;14.20;46.80
10903;DHT22;5504;47.312;11.060;2023-04-15T14:06:52;14.40;45.80
10903;DHT22;5504;47.312;11.060;2023-04-15T14:09:18;14.30;46.80
10903;DHT22;5504;47.312;11.060;2023-04-15T14:11:43;14.40;46.60
10903;DHT22;5504;47.312;11.060;2023-04-15T14:14:09;14.70;46.50
10903;DHT22;5504;47.312;11.060;2023-04-15T14:16:35;14.50;45.90
10903;DHT22;5504;47.312;11.060;2023-04-15T14:19:01;14.40;47.30
10903;DHT22;5504;47.312;11.060;2023-04-15T14:21:27;14.20;46.00
10903;DHT22;5504;47.312;11.060;2023-04-15T14:23:53;14.20;46.40
10903;DHT22;5504;47.312;11.060;2023-04-15T14:26:19;14.10;47.10
10903;DHT22;5504;47.312;11.060;2023-04-15T14:28:45;13.90;47.40
10903;DHT22;5504;47.312;11.060;2023-04-15T14:31:11;13.70;47.90
10903;DHT22;5504;47.312;11.060;2023-04-15T14:33:36;13.70;47.30
10903;DHT22;5504;47.312;11.060;2023-04-15T14:36:02;13.80;47.90
10903;DHT22;5504;47.312;11.060;2023-04-15T14:38:28;13.50;47.40
10903;DHT22;5504;47.312;11.060;2023-04-15T14:40:54;13.50;48.50
10903;DHT22;5504;47.312;11.060;2023-04-15T14:43:20;13.00;53.90
10903;DHT22;5504;47.312;11.060;2023-04-15T14:45:46;12.80;56.50
10903;DHT22;5504;47.312;11.060;2023-04-15T14:48:12;12.70;57.20
10903;DHT22;5504;47.312;11.060;2023-04-15T14:50:38;12.10;57.50
10903;DHT22;5504;47.312;11.060;2023-04-15T14:53:04;12.00;58.70
10903;DHT22;5504;47.312;11.060;2023-04-15T14:55:30;12.00;59.20
10903;DHT22;5504;47.312;11.060;2023-04-15T14:57:55;11.80;59.40
10903;DHT22;5504;47.312;11.060;2023-04-15T15:00:21;11.80;60.00
10903;DHT22;5504;47.312;11.060;2023-04-15T15:02:47;11.40;60.60
10903;DHT22;5504;47.312;11.060;2023-04-15T15:05:12;11.40;61.40
10903;DHT22;5504;47.312;11.060;2023-04-15T15:07:39;11.40;61.40
10903;DHT22;5504;47.312;11.060;2023-04-15T15:10:07;11.60;61.20
10903;DHT22;5504;47.312;11.060;2023-04-15T15:12:33;11.50;60.40
10903;DHT22;5504;47.312;11.060;2023-04-15T15:14:59;11.20;60.80
10903;DHT22;5504;47.312;11.060;2023-04-15T15:17:25;11.00;60.40
10903;DHT22;5504;47.312;11.060;2023-04-15T15:19:50;10.90;61.40
10903;DHT22;5504;47.312;11.060;2023-04-15T15:22:16;10.90;61.70
10903;DHT22;5504;47.312;11.060;2023-04-15T15:24:42;11.00;61.70
10903;DHT22;5504;47.312;11.060;2023-04-15T15:27:07;10.90;61.00
10903;DHT22;5504;47.312;11.060;2023-04-15T15:29:33;11.10;61.30
10903;DHT22;5504;47.312;11.060;2023-04-15T15:31:59;10.90;60.70
10903;DHT22;5504;47.312;11.060;2023-04-15T15:34:24;10.80;60.20
10903;DHT22;5504;47.312;11.060;2023-04-15T15:36:51;9.80;61.40
10903;DHT22;5504;47.312;11.060;2023-04-15T15:39:16;9.70;62.80
10903;DHT22;5504;47.312;11.060;2023-04-15T15:41:42;9.50;63.70
10903;DHT22;5504;47.312;11.060;2023-04-15T15:44:08;9.40;65.20
10903;DHT22;5504;47.312;11.060;2023-04-15T15:46:34;9.70;65.20